Time;durP1;ratioP1;P1;durP2;ratioP2;P2;SDS_P1;SDS_P2;PMS_P1;PMS_P2;Temp;Humidity;BMP_temperature;BMP_pressure;BME280_temperature;BME280_humidity;BME280_pressure;Samples;Min_cycle;Max_cycle;Signal;HPM_P1;HPM_P2
2021/04/01 00:01:21;;;;;;;14.05;4.30;;;13.60;98.00;;;;;;5009731;28;20046;-88
2021/04/01 00:03:48;;;;;;;18.50;4.25;;;13.60;98.00;;;;;;5025018;28;20571;-88
2021/04/01 00:06:15;;;;;;;12.63;4.30;;;13.60;98.00;;;;;;5011999;28;20137;-88
2021/04/01 00:08:42;;;;;;;16.58;4.15;;;13.50;97.90;;;;;;5018775;28;20049;-88
2021/04/01 00:11:09;;;;;;;22.00;4.45;;;13.50;98.00;;;;;;5007907;28;20062;-87
2021/04/01 00:13:36;;;;;;;10.23;3.97;;;13.50;98.00;;;;;;5010175;28;20045;-89
2021/04/01 00:16:04;;;;;;;11.15;3.90;;;13.50;98.00;;;;;;5013712;28;20136;-88
2021/04/01 00:18:34;;;;;;;14.20;3.97;;;13.50;98.10;;;;;;5023754;28;20049;-87
2021/04/01 00:21:02;;;;;;;18.23;5.07;;;13.50;98.20;;;;;;5020164;28;20041;-88
2021/04/01 00:23:29;;;;;;;15.93;4.97;;;13.50;98.20;;;;;;5011289;28;20136;-88
2021/04/01 00:25:57;;;;;;;15.05;4.70;;;13.50;98.30;;;;;;5011734;28;20514;-88
2021/04/01 00:28:24;;;;;;;20.80;4.80;;;13.50;98.40;;;;;;5009732;28;20145;-88
2021/04/01 00:30:51;;;;;;;14.00;4.28;;;13.40;98.50;;;;;;5012247;28;20046;-88
2021/04/01 00:33:18;;;;;;;11.13;4.90;;;13.40;98.70;;;;;;5026570;28;20056;-88
2021/04/01 00:35:44;;;;;;;14.93;4.60;;;13.40;98.80;;;;;;5009524;28;20054;-88
2021/04/01 00:38:11;;;;;;;10.75;4.68;;;13.40;99.00;;;;;;5013948;28;20127;-88
2021/04/01 00:40:38;;;;;;;14.43;4.68;;;13.40;99.10;;;;;;5014036;28;20129;-88
2021/04/01 00:43:05;;;;;;;16.88;4.88;;;13.40;99.30;;;;;;5029306;28;20402;-89
2021/04/01 00:45:31;;;;;;;11.50;4.18;;;13.40;99.60;;;;;;5013237;28;20045;-87
2021/04/01 00:47:58;;;;;;;15.80;4.40;;;13.30;99.80;;;;;;5014368;28;20076;-88
2021/04/01 00:50:27;;;;;;;12.95;4.97;;;13.30;99.90;;;;;;5008967;28;20504;-87
2021/04/01 00:52:54;;;;;;;11.93;4.82;;;13.30;99.90;;;;;;5014081;28;20099;-88
2021/04/01 00:55:21;;;;;;;12.70;4.50;;;13.30;99.90;;;;;;5013260;28;20369;-87
2021/04/01 00:57:53;;;;;;;19.77;5.75;;;13.30;99.90;;;;;;5015378;28;20061;-88
2021/04/01 01:00:25;;;;;;;12.73;5.05;;;13.30;99.90;;;;;;5008929;28;20046;-88
2021/04/01 01:02:52;;;;;;;22.73;5.82;;;13.30;99.90;;;;;;5009001;28;20045;-88
2021/04/01 01:05:21;;;;;;;15.82;5.38;;;13.20;99.90;;;;;;5011834;28;20056;-88
2021/04/01 01:07:48;;;;;;;;;;;13.20;99.90;;;;;;5013822;28;20041;-88
2021/04/01 01:10:22;;;;;;;11.05;5.53;;;13.20;99.90;;;;;;5021848;28;20016;-88
2021/04/01 01:12:49;;;;;;;16.23;6.13;;;13.20;99.90;;;;;;5009355;28;20092;-88
2021/04/01 01:15:16;;;;;;;14.98;6.18;;;13.20;99.90;;;;;;5008742;28;20057;-88
2021/04/01 01:17:42;;;;;;;13.73;6.40;;;13.20;99.90;;;;;;5011438;28;20049;-88
2021/04/01 01:20:10;;;;;;;12.80;6.40;;;13.20;99.90;;;;;;5008738;28;20490;-87
2021/04/01 01:22:53;;;;;;;15.43;7.32;;;13.20;99.90;;;;;;5010281;28;20049;-87
2021/04/01 01:25:21;;;;;;;17.33;6.95;;;13.30;99.90;;;;;;5009371;28;20132;-88
2021/04/01 01:27:48;;;;;;;21.45;8.05;;;13.30;99.90;;;;;;5008843;28;20063;-87
2021/04/01 01:30:18;;;;;;;16.95;7.43;;;13.30;99.90;;;;;;5007370;28;20141;-87
2021/04/01 01:32:47;;;;;;;21.08;8.52;;;13.30;99.90;;;;;;5012780;28;20056;-87
2021/04/01 01:35:28;;;;;;;12.93;7.28;;;13.30;99.90;;;;;;5024283;28;20052;-89
2021/04/01 01:37:57;;;;;;;16.60;7.75;;;13.30;99.90;;;;;;5013716;28;20045;-87
2021/04/01 01:40:25;;;;;;;17.60;8.93;;;13.30;99.90;;;;;;4993305;28;20500;-88
2021/04/01 01:42:55;;;;;;;17.27;7.93;;;13.30;99.90;;;;;;5011336;28;20107;-88
2021/04/01 01:45:21;;;;;;;;;;;13.30;99.90;;;;;;5006270;28;20046;-88
2021/04/01 01:47:48;;;;;;;17.05;7.63;;;13.30;99.90;;;;;;5003353;28;19929;-88
2021/04/01 01:50:16;;;;;;;21.45;7.93;;;13.30;99.90;;;;;;5006485;28;20135;-87
2021/04/01 01:52:43;;;;;;;16.87;7.90;;;13.30;99.90;;;;;;5009878;28;20056;-87
2021/04/01 01:55:11;;;;;;;16.00;7.43;;;13.30;99.90;;;;;;5001125;28;20050;-86
2021/04/01 01:57:38;;;;;;;17.02;8.07;;;13.30;99.90;;;;;;5007698;28;20049;-87
2021/04/01 02:00:12;;;;;;;12.48;7.57;;;13.30;99.90;;;;;;5006826;28;20042;-87
2021/04/01 02:02:38;;;;;;;21.27;8.27;;;13.30;99.90;;;;;;5000382;28;20053;-87
2021/04/01 02:05:08;;;;;;;15.20;7.07;;;13.30;99.90;;;;;;5010009;28;20041;-87
2021/04/01 02:07:35;;;;;;;15.70;7.88;;;13.30;99.90;;;;;;5001999;28;20322;-87
2021/04/01 02:10:06;;;;;;;15.70;8.02;;;13.40;99.90;;;;;;5021512;28;20096;-87
2021/04/01 02:12:33;;;;;;;14.82;7.55;;;13.40;99.90;;;;;;5017197;28;20033;-87
2021/04/01 02:14:59;;;;;;;17.83;7.38;;;13.40;99.90;;;;;;5016720;28;20092;-87
2021/04/01 02:17:26;;;;;;;14.18;7.53;;;13.40;99.90;;;;;;5013201;28;20052;-87
2021/04/01 02:19:57;;;;;;;27.20;7.53;;;13.40;99.90;;;;;;5011233;28;20038;-87
2021/04/01 02:22:24;;;;;;;17.50;7.43;;;13.40;99.90;;;;;;5010582;28;20057;-86
2021/04/01 02:24:50;;;;;;;13.80;6.97;;;13.30;99.90;;;;;;5014665;28;20045;-88
2021/04/01 02:27:17;;;;;;;14.90;7.03;;;13.40;99.90;;;;;;5012782;28;20049;-87
2021/04/01 02:29:43;;;;;;;15.82;7.30;;;13.30;99.90;;;;;;5012114;28;20452;-86
2021/04/01 02:32:10;;;;;;;14.00;7.43;;;13.30;99.90;;;;;;5011565;28;20392;-87
2021/04/01 02:34:38;;;;;;;16.35;6.68;;;13.30;99.90;;;;;;5010567;28;20099;-86
2021/04/01 02:37:06;;;;;;;15.55;7.82;;;13.30;99.90;;;;;;5014349;28;20140;-88
2021/04/01 02:39:32;;;;;;;11.38;6.90;;;13.30;99.90;;;;;;5011074;28;20045;-88
2021/04/01 02:41:59;;;;;;;11.48;7.55;;;13.30;99.90;;;;;;5014266;28;20391;-87
2021/04/01 02:44:26;;;;;;;13.85;6.88;;;13.30;99.90;;;;;;5011085;28;20042;-87
2021/04/01 02:46:52;;;;;;;17.13;7.05;;;13.30;99.90;;;;;;5012146;28;20042;-87
2021/04/01 02:49:19;;;;;;;14.75;7.32;;;13.30;99.90;;;;;;5012025;28;20056;-87
2021/04/01 02:51:45;;;;;;;12.05;5.97;;;13.30;99.90;;;;;;5026162;28;20053;-89
2021/04/01 02:54:11;;;;;;;15.27;6.80;;;13.30;99.90;;;;;;5017342;28;20120;-87
2021/04/01 02:56:38;;;;;;;15.10;5.95;;;13.30;99.90;;;;;;5012965;28;20049;-87
2021/04/01 02:59:04;;;;;;;14.93;6.63;;;13.30;99.90;;;;;;5007996;28;20046;-87
2021/04/01 03:01:31;;;;;;;15.13;6.38;;;13.30;99.90;;;;;;5007356;28;20049;-87
2021/04/01 03:03:59;;;;;;;12.68;5.93;;;13.30;99.90;;;;;;5012272;28;20057;-87
2021/04/01 03:06:26;;;;;;;15.60;6.63;;;13.20;99.90;;;;;;5011845;28;20041;-87
2021/04/01 03:08:52;;;;;;;12.30;6.18;;;13.20;99.90;;;;;;5012028;28;20057;-87
2021/04/01 03:11:21;;;;;;;12.25;6.45;;;13.30;99.90;;;;;;5012023;28;20132;-87
2021/04/01 03:13:48;;;;;;;17.17;7.00;;;13.20;99.90;;;;;;5011754;28;20095;-86
2021/04/01 03:16:14;;;;;;;12.15;6.03;;;13.20;99.90;;;;;;5011685;28;20046;-87
2021/04/01 03:18:40;;;;;;;13.13;5.95;;;13.20;99.90;;;;;;5030937;28;20048;-87
2021/04/01 03:21:07;;;;;;;17.23;6.20;;;13.20;99.90;;;;;;5014131;28;20056;-88
2021/04/01 03:23:34;;;;;;;13.82;6.63;;;13.20;99.90;;;;;;5011320;28;20042;-88
2021/04/01 03:26:00;;;;;;;15.43;6.45;;;13.10;99.90;;;;;;5009069;28;20167;-87
2021/04/01 03:28:27;;;;;;;10.43;5.82;;;13.20;99.90;;;;;;5007868;28;20461;-87
2021/04/01 03:31:03;;;;;;;16.88;6.90;;;13.10;99.90;;;;;;5011345;28;20045;-87
2021/04/01 03:33:31;;;;;;;12.43;5.80;;;13.10;99.90;;;;;;5010619;28;20068;-87
2021/04/01 03:35:58;;;;;;;10.70;5.85;;;13.10;99.90;;;;;;5010700;28;20053;-87
2021/04/01 03:38:26;;;;;;;14.63;6.20;;;13.10;99.90;;;;;;5008397;28;20050;-87
2021/04/01 03:40:56;;;;;;;13.23;6.47;;;13.10;99.90;;;;;;5012063;28;20052;-87
2021/04/01 03:43:24;;;;;;;11.65;5.70;;;13.10;99.90;;;;;;5009017;28;20087;-87
2021/04/01 03:45:51;;;;;;;16.40;6.30;;;13.10;99.90;;;;;;5030768;28;20128;-87
2021/04/01 03:48:18;;;;;;;11.95;5.90;;;13.10;99.90;;;;;;4998819;28;20394;-87
2021/04/01 03:50:45;;;;;;;17.00;6.35;;;13.10;99.90;;;;;;5006112;28;20052;-87
2021/04/01 03:53:12;;;;;;;14.05;6.35;;;13.00;99.90;;;;;;5010709;28;20065;-88
2021/04/01 03:55:40;;;;;;;14.77;6.20;;;13.00;99.90;;;;;;5011006;28;20057;-87
2021/04/01 04:06:16;;;;;;;11.93;6.25;;;13.10;99.90;;;;;;5027869;28;20054;-87
2021/04/01 04:11:49;;;;;;;12.57;5.55;;;13.00;99.90;;;;;;4947365;28;20158;-87
2021/04/01 04:16:46;;;;;;;16.10;6.03;;;13.10;99.90;;;;;;4971317;28;20047;-87
2021/04/01 04:19:12;;;;;;;14.07;6.20;;;13.00;99.90;;;;;;4965034;28;20050;-87
2021/04/01 04:21:39;;;;;;;10.20;5.50;;;13.00;99.90;;;;;;4972377;28;20125;-88
2021/04/01 04:24:09;;;;;;;15.10;5.60;;;13.10;99.90;;;;;;4955921;28;20385;-87
2021/04/01 04:26:40;;;;;;;8.90;4.88;;;13.10;99.90;;;;;;4950692;28;20138;-87
2021/04/01 04:29:07;;;;;;;14.52;6.22;;;13.00;99.90;;;;;;4954793;28;20049;-87
2021/04/01 04:31:33;;;;;;;18.35;5.80;;;13.10;99.90;;;;;;4955466;28;20385;-87
2021/04/01 04:34:00;;;;;;;14.20;6.57;;;13.10;99.90;;;;;;4953231;28;20059;-87
2021/04/01 04:36:27;;;;;;;14.10;5.60;;;13.10;99.90;;;;;;4955892;28;20481;-88
2021/04/01 04:38:53;;;;;;;16.33;5.85;;;13.00;99.90;;;;;;4955241;28;20168;-87
2021/04/01 04:41:20;;;;;;;12.48;5.85;;;13.00;99.90;;;;;;4955413;28;20078;-86
2021/04/01 04:43:46;;;;;;;15.20;5.85;;;13.10;99.90;;;;;;4955664;28;20053;-87
2021/04/01 04:46:13;;;;;;;13.00;5.55;;;13.10;99.90;;;;;;4957130;28;20059;-86
2021/04/01 04:48:39;;;;;;;17.92;6.25;;;13.10;99.90;;;;;;5027692;28;20496;-88
2021/04/01 04:51:06;;;;;;;11.93;5.28;;;13.00;99.90;;;;;;5011949;28;20046;-87
2021/04/01 04:53:33;;;;;;;18.80;6.18;;;13.00;99.90;;;;;;5016064;28;20506;-87
2021/04/01 04:58:55;;;;;;;14.98;5.78;;;13.00;99.90;;;;;;5009755;28;20042;-88
2021/04/01 05:06:53;;;;;;;12.88;6.05;;;12.90;99.90;;;;;;5012053;28;20124;-87
2021/04/01 05:09:21;;;;;;;11.68;6.15;;;12.90;99.90;;;;;;5018977;28;20060;-87
2021/04/01 05:11:48;;;;;;;17.65;6.10;;;12.90;99.90;;;;;;5015198;28;20042;-87
2021/04/01 05:14:14;;;;;;;10.95;5.47;;;12.80;99.90;;;;;;5012548;28;20051;-87
2021/04/01 05:16:41;;;;;;;11.82;5.97;;;12.80;99.90;;;;;;5013729;28;20049;-87
2021/04/01 05:19:10;;;;;;;13.55;6.00;;;12.80;99.90;;;;;;5022160;28;20049;-87
2021/04/01 05:24:25;;;;;;;11.90;5.80;;;12.70;99.90;;;;;;5032229;28;19927;-89
2021/04/01 05:29:30;;;;;;;18.17;6.43;;;12.70;99.90;;;;;;5028692;28;20064;-87
2021/04/01 05:31:56;;;;;;;13.23;6.57;;;12.70;99.90;;;;;;5015347;28;20116;-87
2021/04/01 05:34:25;;;;;;;12.35;6.22;;;12.70;99.90;;;;;;5013952;28;20102;-88
2021/04/01 05:36:52;;;;;;;16.05;6.00;;;12.60;99.90;;;;;;5015643;28;20391;-87
2021/04/01 05:39:20;;;;;;;26.27;6.50;;;12.60;99.90;;;;;;5009967;28;20057;-88
2021/04/01 05:41:49;;;;;;;11.52;6.13;;;12.60;99.90;;;;;;5011927;28;20045;-88
2021/04/01 05:47:06;;;;;;;18.52;6.50;;;12.60;99.90;;;;;;5029376;28;19929;-88
2021/04/01 05:49:43;;;;;;;13.90;6.13;;;12.60;99.90;;;;;;5009645;28;20048;-88
2021/04/01 05:58:08;;;;;;;17.55;6.13;;;12.60;99.90;;;;;;5028839;28;20048;-88
2021/04/01 06:03:31;;;;;;;17.73;5.88;;;12.60;99.90;;;;;;5028386;28;20454;-89
2021/04/01 06:06:11;;;;;;;14.85;6.35;;;12.60;99.90;;;;;;5014421;28;20053;-87
2021/04/01 06:08:49;;;;;;;17.77;5.65;;;12.60;99.90;;;;;;5001528;28;20042;-88
2021/04/01 06:11:19;;;;;;;21.05;6.43;;;12.60;99.90;;;;;;5011077;28;20049;-88
2021/04/01 06:14:12;;;;;;;14.10;5.75;;;12.60;99.90;;;;;;5011133;28;20423;-87
2021/04/01 06:16:41;;;;;;;14.93;5.75;;;12.70;99.90;;;;;;4997679;28;20057;-87
2021/04/01 06:19:17;;;;;;;30.42;6.07;;;12.70;99.90;;;;;;5013766;28;20068;-88
2021/04/01 06:21:48;;;;;;;17.75;6.35;;;12.70;99.90;;;;;;5030411;28;20049;-88
2021/04/01 06:24:27;;;;;;;12.00;5.45;;;12.70;99.90;;;;;;5009819;28;20149;-86
2021/04/01 06:27:11;;;;;;;11.95;5.53;;;12.70;99.90;;;;;;5025015;28;20486;-86
2021/04/01 06:29:40;;;;;;;16.60;5.70;;;12.80;99.90;;;;;;5013180;28;20041;-87
2021/04/01 06:32:23;;;;;;;13.70;5.60;;;12.80;99.90;;;;;;5005993;28;20206;-87
2021/04/01 06:34:50;;;;;;;11.93;5.30;;;12.90;99.90;;;;;;5012460;28;20124;-87
2021/04/01 06:40:07;;;;;;;8.55;5.10;;;12.90;99.90;;;;;;4983231;28;20050;-87
2021/04/01 06:42:46;;;;;;;13.57;5.60;;;13.00;99.90;;;;;;4973164;28;20057;-87
2021/04/01 06:45:15;;;;;;;;;;;13.00;99.90;;;;;;4977211;28;20043;-86
2021/04/01 06:47:54;;;;;;;11.70;5.50;;;13.00;99.90;;;;;;4958880;28;20440;-87
2021/04/01 06:50:26;;;;;;;10.80;4.97;;;13.10;99.90;;;;;;4959411;28;20038;-87
2021/04/01 06:53:17;;;;;;;13.32;5.03;;;13.10;99.90;;;;;;4980139;28;20046;-87
2021/04/01 06:56:19;;;;;;;12.07;4.55;;;13.20;99.90;;;;;;4961936;28;20054;-87
2021/04/01 07:04:29;;;;;;;11.90;5.18;;;13.40;99.90;;;;;;4970073;28;20043;-86
2021/04/01 07:07:06;;;;;;;9.88;4.95;;;13.50;99.90;;;;;;4986886;28;20051;-86
2021/04/01 07:12:25;;;;;;;12.75;4.28;;;13.70;99.90;;;;;;4978599;28;20705;-86
2021/04/01 07:15:23;;;;;;;9.75;4.43;;;13.80;99.90;;;;;;4956485;28;20050;-87
2021/04/01 07:18:00;;;;;;;11.85;5.07;;;13.90;99.90;;;;;;4995414;28;20037;-86
2021/04/01 07:23:26;;;;;;;;;;;14.00;99.90;;;;;;5028024;28;20041;-87
2021/04/01 07:48:45;;;;;;;13.23;5.28;;;15.00;99.90;;;;;;4932871;29;20123;-86
2021/04/01 07:54:08;;;;;;;12.13;5.25;;;15.20;99.90;;;;;;4933740;29;20070;-87
2021/04/01 08:04:44;;;;;;;11.77;4.57;;;15.60;99.90;;;;;;4931773;29;20043;-87
2021/04/01 08:07:14;;;;;;;11.02;4.70;;;15.80;99.90;;;;;;4917828;29;20047;-87
2021/04/01 08:09:46;;;;;;;11.10;4.75;;;15.80;99.90;;;;;;4929340;29;20541;-86
2021/04/01 08:12:26;;;;;;;12.65;4.90;;;16.00;99.90;;;;;;4933870;29;20055;-87
2021/04/01 08:15:12;;;;;;;16.58;4.90;;;16.10;99.90;;;;;;5015369;28;20046;-87
2021/04/01 08:20:25;;;;;;;14.32;4.70;;;16.30;99.90;;;;;;5030729;28;20054;-87
2021/04/01 08:23:19;;;;;;;10.02;4.75;;;16.50;99.90;;;;;;5016098;28;20045;-86
2021/04/01 08:32:23;;;;;;;17.65;4.68;;;16.80;99.90;;;;;;5025200;28;20130;-87
2021/04/01 08:35:12;;;;;;;11.82;4.20;;;17.00;99.90;;;;;;5009764;28;20176;-87
2021/04/01 08:38:10;;;;;;;11.27;4.93;;;17.10;99.90;;;;;;5017617;28;20053;-87
2021/04/01 08:41:05;;;;;;;12.98;4.97;;;17.30;99.90;;;;;;5005650;28;20037;-87
2021/04/01 08:44:07;;;;;;;10.43;3.83;;;17.40;99.90;;;;;;5010539;28;20111;-87
2021/04/01 08:47:01;;;;;;;10.77;4.15;;;17.50;99.90;;;;;;5004033;28;20052;-87
2021/04/01 08:49:40;;;;;;;16.63;4.85;;;17.60;99.90;;;;;;5013693;28;20049;-87
2021/04/01 08:52:55;;;;;;;11.20;4.25;;;17.70;99.90;;;;;;5011176;28;20124;-87
2021/04/01 08:55:37;;;;;;;12.18;4.28;;;17.80;99.10;;;;;;4946700;28;20051;-87
2021/04/01 08:58:41;;;;;;;10.68;3.85;;;17.90;99.10;;;;;;4949035;28;20367;-87
2021/04/01 09:01:16;;;;;;;7.05;3.50;;;18.10;98.40;;;;;;4949074;28;20496;-87
2021/04/01 09:03:46;;;;;;;15.18;4.43;;;18.10;98.40;;;;;;4935871;29;20553;-87
2021/04/01 09:06:17;;;;;;;10.02;3.67;;;18.20;98.10;;;;;;4937708;29;20051;-87
2021/04/01 09:08:59;;;;;;;9.55;3.38;;;18.30;97.90;;;;;;4934304;28;20323;-87
2021/04/01 09:11:55;;;;;;;9.38;3.05;;;18.40;97.80;;;;;;4941992;29;20151;-87
2021/04/01 09:14:25;;;;;;;14.52;3.58;;;18.50;97.70;;;;;;4949772;28;20062;-86
2021/04/01 09:17:14;;;;;;;7.88;3.38;;;18.60;97.10;;;;;;4956586;29;20044;-87
2021/04/01 09:19:43;;;;;;;7.57;3.35;;;18.70;97.30;;;;;;4935410;28;20069;-87
2021/04/01 09:22:23;;;;;;;12.52;3.78;;;18.80;97.20;;;;;;4941257;28;20117;-86
2021/04/01 09:24:56;;;;;;;;;;;18.90;96.80;;;;;;4937538;29;20058;-87
2021/04/01 09:27:24;;;;;;;12.00;3.83;;;19.00;96.20;;;;;;4934972;28;19926;-87
2021/04/01 09:30:01;;;;;;;11.02;3.20;;;19.10;96.60;;;;;;4946660;28;20045;-87
2021/04/01 09:32:28;;;;;;;10.23;3.35;;;19.10;96.20;;;;;;5029637;28;20041;-86
2021/04/01 09:34:59;;;;;;;8.85;3.20;;;19.20;96.40;;;;;;5030152;28;20052;-87
2021/04/01 09:37:26;;;;;;;7.93;3.17;;;19.30;96.30;;;;;;5016562;28;20041;-86
2021/04/01 09:40:10;;;;;;;10.10;3.30;;;19.30;96.30;;;;;;5023166;28;20398;-87
2021/04/01 09:42:42;;;;;;;12.85;3.72;;;19.40;95.90;;;;;;5029299;28;20048;-87
2021/04/01 09:45:11;;;;;;;15.35;3.90;;;19.50;95.60;;;;;;5013660;28;20395;-87
2021/04/01 09:47:40;;;;;;;9.70;3.43;;;19.50;95.70;;;;;;5014108;28;20042;-87
2021/04/01 09:50:11;;;;;;;9.13;3.15;;;19.60;95.60;;;;;;5030716;28;20049;-87
2021/04/01 09:52:59;;;;;;;10.32;2.97;;;19.70;95.50;;;;;;5013759;28;20476;-87
2021/04/01 09:55:39;;;;;;;10.85;3.53;;;19.80;95.20;;;;;;5012068;28;20069;-87
2021/04/01 09:58:27;;;;;;;9.57;3.50;;;19.90;94.80;;;;;;5009690;28;20049;-87
2021/04/01 10:01:28;;;;;;;8.90;3.50;;;20.00;94.90;;;;;;5013870;28;20498;-87
2021/04/01 10:04:08;;;;;;;9.10;3.60;;;20.10;94.60;;;;;;5015340;28;20103;-87
2021/04/01 10:06:41;;;;;;;14.43;3.47;;;20.10;94.80;;;;;;5033390;28;20051;-87
2021/04/01 10:09:13;;;;;;;8.85;3.38;;;20.20;94.60;;;;;;5016469;28;20041;-87
2021/04/01 10:12:05;;;;;;;11.70;3.20;;;20.20;94.40;;;;;;5012154;28;20053;-87
2021/04/01 10:14:51;;;;;;;11.05;3.47;;;20.20;94.30;;;;;;5021487;28;20044;-87
2021/04/01 10:17:21;;;;;;;9.88;3.22;;;20.30;94.10;;;;;;5015906;28;20053;-87
2021/04/01 10:19:56;;;;;;;9.52;3.08;;;20.30;94.40;;;;;;5012389;28;20041;-87
2021/04/01 10:22:36;;;;;;;10.88;3.50;;;20.40;94.60;;;;;;5011982;28;20041;-91
2021/04/01 10:25:17;;;;;;;8.43;3.22;;;20.50;94.10;;;;;;5011232;28;20375;-92
2021/04/01 10:27:56;;;;;;;10.48;3.45;;;20.50;94.10;;;;;;5029069;28;20132;-86
2021/04/01 10:30:28;;;;;;;7.43;3.13;;;20.50;94.20;;;;;;5008804;28;20241;-87
2021/04/01 10:33:18;;;;;;;12.57;3.40;;;20.60;94.00;;;;;;5005718;28;20047;-87
2021/04/01 10:35:51;;;;;;;15.30;3.10;;;20.60;93.50;;;;;;5010513;28;20053;-87
2021/04/01 10:38:21;;;;;;;12.52;3.22;;;20.60;93.70;;;;;;5011981;28;20045;-87
2021/04/01 10:40:50;;;;;;;7.88;3.33;;;20.70;93.60;;;;;;5011894;28;20518;-86
2021/04/01 10:43:20;;;;;;;11.60;3.33;;;20.80;93.60;;;;;;5009700;28;20061;-87
2021/04/01 10:45:47;;;;;;;14.73;3.65;;;21.00;94.00;;;;;;5028327;28;20132;-87
2021/04/01 10:48:25;;;;;;;9.95;2.97;;;21.10;93.90;;;;;;5029831;28;20049;-87
2021/04/01 10:50:58;;;;;;;11.27;3.53;;;21.20;93.40;;;;;;5012431;28;20053;-86
2021/04/01 10:53:25;;;;;;;14.48;3.05;;;21.40;93.40;;;;;;5011020;28;20051;-87
2021/04/01 10:56:02;;;;;;;8.88;2.95;;;21.50;93.30;;;;;;5011599;28;20124;-87
2021/04/01 10:58:28;;;;;;;8.43;3.38;;;21.60;93.00;;;;;;5008780;28;20084;-87
2021/04/01 11:01:00;;;;;;;10.20;3.17;;;21.70;92.70;;;;;;5013592;28;20042;-87
2021/04/01 11:03:31;;;;;;;10.32;3.03;;;21.80;92.80;;;;;;5026710;28;20072;-87
2021/04/01 11:06:00;;;;;;;11.25;3.40;;;21.90;92.50;;;;;;5008237;28;20052;-86
2021/04/01 11:08:38;;;;;;;13.73;3.60;;;21.90;92.50;;;;;;5009983;28;20482;-87
2021/04/01 11:11:06;;;;;;;8.75;3.28;;;22.00;92.10;;;;;;5012316;28;20489;-87
2021/04/01 11:13:37;;;;;;;10.40;2.80;;;22.00;92.30;;;;;;5011626;28;20057;-87
2021/04/01 11:16:12;;;;;;;11.75;3.38;;;22.00;92.00;;;;;;5026892;28;20056;-87
2021/04/01 11:18:45;;;;;;;11.32;3.10;;;22.10;92.30;;;;;;5028594;28;20508;-87
2021/04/01 11:21:13;;;;;;;9.10;3.30;;;22.20;92.00;;;;;;5006736;28;20228;-87
2021/04/01 11:23:40;;;;;;;10.88;3.65;;;22.20;92.00;;;;;;5019813;28;20049;-87
2021/04/01 11:26:07;;;;;;;14.00;3.38;;;22.10;91.10;;;;;;5007508;28;20065;-87
2021/04/01 11:28:47;;;;;;;9.88;3.13;;;22.10;90.70;;;;;;4999128;28;20125;-86
2021/04/01 11:31:30;;;;;;;17.15;3.33;;;22.10;90.80;;;;;;5012257;28;20174;-87
2021/04/01 11:34:00;;;;;;;10.77;3.42;;;22.20;90.00;;;;;;5012146;28;20046;-87
2021/04/01 11:36:36;;;;;;;7.30;2.90;;;22.20;90.60;;;;;;5011119;28;20069;-87
2021/04/01 11:39:13;;;;;;;11.98;2.97;;;22.20;90.20;;;;;;5011054;28;20045;-87
2021/04/01 11:41:48;;;;;;;10.13;2.95;;;22.20;89.80;;;;;;5005608;28;20050;-87
2021/04/01 11:44:20;;;;;;;9.30;3.10;;;22.30;89.80;;;;;;5028148;28;20383;-88
2021/04/01 11:46:46;;;;;;;8.88;3.10;;;22.30;89.90;;;;;;5017630;28;20072;-87
2021/04/01 11:49:13;;;;;;;9.50;3.08;;;22.30;89.30;;;;;;5017623;28;20049;-87
2021/04/01 11:51:40;;;;;;;9.30;2.80;;;22.40;88.70;;;;;;5011555;28;20065;-87
2021/04/01 11:54:08;;;;;;;14.65;3.20;;;22.40;88.90;;;;;;5008361;28;20475;-87
2021/04/01 11:56:36;;;;;;;;;;;22.40;87.10;;;;;;5012716;28;20049;-87
2021/04/01 11:59:10;;;;;;;10.52;3.28;;;22.40;85.20;;;;;;5011616;28;19921;-87
2021/04/01 12:01:57;;;;;;;7.43;2.90;;;22.50;86.10;;;;;;5012100;28;20503;-87
2021/04/01 12:04:25;;;;;;;11.30;2.95;;;22.50;85.40;;;;;;5006785;28;20964;-87
2021/04/01 12:06:54;;;;;;;10.73;2.83;;;22.50;86.10;;;;;;5017544;28;20046;-87
2021/04/01 12:09:21;;;;;;;11.40;3.00;;;22.60;86.70;;;;;;5009209;28;20045;-87
2021/04/01 12:11:47;;;;;;;7.55;2.92;;;22.60;86.70;;;;;;5012241;28;20052;-87
2021/04/01 12:14:16;;;;;;;11.38;2.60;;;22.60;86.20;;;;;;5002505;28;20057;-87
2021/04/01 12:16:43;;;;;;;;;;;22.70;86.20;;;;;;4996012;28;20050;-87
2021/04/01 12:19:10;;;;;;;9.60;2.58;;;22.70;84.20;;;;;;4992938;28;19921;-87
2021/04/01 12:21:37;;;;;;;9.70;2.47;;;22.80;85.80;;;;;;5006410;28;20058;-87
2021/04/01 12:24:06;;;;;;;9.30;2.85;;;22.80;86.40;;;;;;4992746;28;20057;-87
2021/04/01 12:26:49;;;;;;;10.93;2.70;;;22.80;86.30;;;;;;4994657;28;20404;-87
2021/04/01 12:29:17;;;;;;;6.30;2.25;;;22.90;84.50;;;;;;4997803;28;20093;-87
2021/04/01 12:31:56;;;;;;;8.52;2.40;;;23.00;84.70;;;;;;4993391;28;20050;-87
2021/04/01 12:34:29;;;;;;;;;;;23.10;84.40;;;;;;5000718;28;20050;-87
2021/04/01 12:37:04;;;;;;;8.80;2.50;;;23.10;83.20;;;;;;4996329;28;19921;-87
2021/04/01 12:39:32;;;;;;;6.28;2.08;;;23.10;83.80;;;;;;4994030;28;20065;-88
2021/04/01 12:41:59;;;;;;;7.05;2.20;;;23.10;83.50;;;;;;4991742;28;20050;-87
2021/04/01 12:44:36;;;;;;;8.15;1.90;;;23.20;83.00;;;;;;5001071;28;20042;-88
2021/04/01 12:47:02;;;;;;;8.15;2.20;;;23.30;83.00;;;;;;4996334;28;20046;-87
2021/04/01 12:49:33;;;;;;;9.60;2.58;;;23.30;82.30;;;;;;4994140;28;20502;-87
2021/04/01 12:52:03;;;;;;;8.10;2.03;;;23.40;81.60;;;;;;4996672;28;20045;-87
2021/04/01 12:54:36;;;;;;;3.83;1.77;;;23.40;80.00;;;;;;4992328;28;20046;-88
2021/04/01 12:57:10;;;;;;;5.15;2.35;;;23.50;78.60;;;;;;4991542;28;20069;-88
2021/04/01 12:59:48;;;;;;;4.22;1.90;;;23.60;78.30;;;;;;4995735;28;20071;-88
2021/04/01 13:02:17;;;;;;;5.70;1.70;;;23.60;76.90;;;;;;5005966;28;20050;-87
2021/04/01 13:04:52;;;;;;;7.93;2.00;;;23.60;76.90;;;;;;4998622;28;20046;-87
2021/04/01 13:07:33;;;;;;;8.30;1.90;;;23.70;77.00;;;;;;4991185;28;20057;-88
2021/04/01 13:10:39;;;;;;;10.95;2.22;;;23.70;75.30;;;;;;4994777;28;20045;-87
2021/04/01 13:12:56;;;;;;;5.32;2.58;;;23.70;75.90;;;;;;5017197;28;20045;-87
2021/04/01 13:15:25;;;;;;;6.65;2.35;;;23.70;75.80;;;;;;5006715;28;20050;-88
2021/04/01 13:17:52;;;;;;;7.07;2.00;;;23.70;74.60;;;;;;5008847;28;20049;-87
2021/04/01 13:20:19;;;;;;;6.10;1.98;;;23.70;73.90;;;;;;5012724;28;20041;-87
2021/04/01 13:25:28;;;;;;;8.85;2.28;;;23.70;73.00;;;;;;5030127;28;20045;-87
2021/04/01 13:28:02;;;;;;;8.07;1.80;;;23.70;73.00;;;;;;5011459;28;20045;-87
2021/04/01 13:30:30;;;;;;;4.00;1.75;;;23.70;71.30;;;;;;5014057;28;20041;-87
2021/04/01 13:38:29;;;;;;;6.70;2.10;;;23.70;72.10;;;;;;5014533;28;20042;-87
2021/04/01 13:40:56;;;;;;;10.30;2.25;;;23.60;72.10;;;;;;5013855;28;20037;-88
2021/04/01 13:43:28;;;;;;;6.72;2.00;;;23.60;72.20;;;;;;5011286;28;20395;-87
2021/04/01 13:45:55;;;;;;;8.63;2.50;;;23.50;72.40;;;;;;5030076;28;20053;-87
2021/04/01 13:48:27;;;;;;;8.27;2.30;;;23.50;72.90;;;;;;5011795;28;20049;-87
2021/04/01 13:51:19;;;;;;;9.85;2.30;;;23.50;73.60;;;;;;5012622;28;20045;-87
2021/04/01 13:54:45;;;;;;;9.05;2.25;;;23.50;73.60;;;;;;5033790;28;20057;-87
2021/04/01 13:57:49;;;;;;;8.90;2.10;;;23.60;72.80;;;;;;5024432;28;20049;-87
2021/04/01 14:09:17;;;;;;;6.20;2.03;;;23.50;70.00;;;;;;5030875;28;20088;-88
2021/04/01 14:11:35;;;;;;;5.00;1.80;;;23.50;70.50;;;;;;5026689;28;20149;-87
2021/04/01 14:14:01;;;;;;;8.05;2.42;;;23.60;70.70;;;;;;5014124;28;20045;-87
2021/04/01 14:16:28;;;;;;;7.78;2.28;;;23.60;70.50;;;;;;5020681;28;20123;-88
2021/04/01 14:18:56;;;;;;;9.73;2.25;;;23.60;70.10;;;;;;5017656;28;20049;-88
2021/04/01 14:21:23;;;;;;;7.18;2.13;;;23.70;70.30;;;;;;5009160;28;20053;-87
2021/04/01 14:23:52;;;;;;;7.93;2.20;;;23.70;70.30;;;;;;5011030;28;20046;-87
2021/04/01 14:29:20;;;;;;;6.55;2.42;;;23.90;69.90;;;;;;4965503;28;20050;-87
2021/04/01 14:31:46;;;;;;;10.07;2.53;;;23.90;70.30;;;;;;4970645;28;20089;-88
2021/04/01 14:34:14;;;;;;;6.28;2.08;;;24.00;70.10;;;;;;4967488;28;20050;-87
2021/04/01 14:36:41;;;;;;;8.48;2.17;;;24.00;70.30;;;;;;4969530;28;20465;-87
2021/04/01 14:39:08;;;;;;;11.32;2.53;;;24.00;70.70;;;;;;4948712;28;20066;-88
2021/04/01 14:41:47;;;;;;;6.20;2.00;;;24.10;70.80;;;;;;4966350;28;20069;-87
2021/04/01 14:44:19;;;;;;;5.20;2.03;;;24.10;70.90;;;;;;4968747;28;20053;-87
2021/04/01 14:46:50;;;;;;;10.73;2.75;;;24.20;71.30;;;;;;4969839;28;20054;-87
2021/04/01 14:49:18;;;;;;;8.02;2.25;;;24.30;70.80;;;;;;4964594;28;20047;-87
2021/04/01 14:51:45;;;;;;;7.05;2.15;;;24.30;70.80;;;;;;4951653;28;20055;-87
2021/04/01 14:54:15;;;;;;;8.07;2.35;;;24.40;71.30;;;;;;4966056;28;20051;-87
2021/04/01 14:56:45;;;;;;;7.65;2.33;;;24.40;71.20;;;;;;4966936;28;20050;-87
2021/04/01 14:59:16;;;;;;;7.57;2.08;;;24.40;70.80;;;;;;4966184;28;20493;-87
2021/04/01 15:01:58;;;;;;;12.25;2.55;;;24.40;70.60;;;;;;4968610;28;20068;-87